createdAt,value
2018-03-30T00:00:45.584Z,22.83
2018-03-30T00:03:13.218Z,22.60
2018-03-30T00:05:40.909Z,23.17
2018-03-30T00:08:08.541Z,23.00
2018-03-30T00:10:41.731Z,24.27
2018-03-30T00:13:09.328Z,24.13
2018-03-30T00:15:36.942Z,24.90
2018-03-30T00:18:04.541Z,23.27
2018-03-30T00:20:32.134Z,23.83
2018-03-30T00:23:00.498Z,25.00
2018-03-30T00:25:28.120Z,23.10
2018-03-30T00:27:55.738Z,23.50
2018-03-30T00:30:24.105Z,23.30
2018-03-30T00:32:51.777Z,24.43
2018-03-30T00:35:19.384Z,24.20
2018-03-30T00:37:47.003Z,25.67
2018-03-30T00:40:14.621Z,25.17
2018-03-30T00:42:42.210Z,25.83
2018-03-30T00:45:10.053Z,25.43
2018-03-30T00:47:37.709Z,25.13
2018-03-30T00:50:05.313Z,25.80
2018-03-30T00:52:32.941Z,26.40
2018-03-30T00:55:00.558Z,27.20
2018-03-30T00:57:29.011Z,25.63
2018-03-30T00:59:56.638Z,26.43
2018-03-30T01:02:24.228Z,25.67
2018-03-30T01:04:52.068Z,26.23
2018-03-30T01:07:19.717Z,24.80
2018-03-30T01:09:47.320Z,23.77
2018-03-30T01:12:14.913Z,25.27
2018-03-30T01:14:43.277Z,24.57
2018-03-30T01:17:10.921Z,24.07
2018-03-30T01:19:38.526Z,24.57
2018-03-30T01:22:06.153Z,25.03
2018-03-30T01:24:33.758Z,23.97
2018-03-30T01:27:02.413Z,25.37
2018-03-30T01:29:30.015Z,24.10
2018-03-30T01:31:57.680Z,23.60
2018-03-30T01:34:25.380Z,22.90
2018-03-30T01:36:52.997Z,23.73
2018-03-30T01:39:20.596Z,23.63
2018-03-30T01:41:48.224Z,24.70
2018-03-30T01:44:15.865Z,24.50
2018-03-30T01:46:44.309Z,25.77
2018-03-30T01:49:11.922Z,23.53
2018-03-30T01:51:39.511Z,24.20
2018-03-30T01:54:07.122Z,26.10
2018-03-30T01:56:35.647Z,23.97
2018-03-30T01:59:03.307Z,24.63
2018-03-30T02:01:30.900Z,22.57
2018-03-30T02:03:58.510Z,23.67
2018-03-30T02:06:26.104Z,23.70
2018-03-30T02:08:53.702Z,22.73
2018-03-30T02:11:21.290Z,23.20
2018-03-30T02:13:49.672Z,22.80
2018-03-30T02:16:18.077Z,24.40
2018-03-30T02:18:45.698Z,24.77
2018-03-30T02:21:14.079Z,23.20
2018-03-30T02:23:42.536Z,23.87
2018-03-30T02:26:10.323Z,22.87
2018-03-30T02:28:38.675Z,21.80
2018-03-30T02:31:06.316Z,22.80
2018-03-30T02:33:33.926Z,22.93
2018-03-30T02:36:01.583Z,21.87
2018-03-30T02:38:29.172Z,23.03
2018-03-30T02:40:56.810Z,22.20
2018-03-30T02:43:24.465Z,22.03
2018-03-30T02:45:52.050Z,21.43
2018-03-30T02:48:20.436Z,20.30
2018-03-30T02:50:48.050Z,20.20
2018-03-30T02:53:15.731Z,20.77
2018-03-30T02:55:43.515Z,21.90
2018-03-30T02:58:11.889Z,21.57
2018-03-30T03:00:40.302Z,21.00
2018-03-30T03:03:07.920Z,21.00
2018-03-30T03:05:35.570Z,21.03
2018-03-30T03:08:03.168Z,22.60
2018-03-30T03:10:30.751Z,19.80
2018-03-30T03:12:58.441Z,21.17
2018-03-30T03:15:26.034Z,22.00
2018-03-30T03:17:53.681Z,19.87
2018-03-30T03:20:21.284Z,21.53
2018-03-30T03:22:48.906Z,21.57
2018-03-30T03:25:16.601Z,23.30
2018-03-30T03:27:44.190Z,20.00
2018-03-30T03:30:11.958Z,20.60
2018-03-30T03:32:39.540Z,20.90
2018-03-30T03:35:07.200Z,20.40
2018-03-30T03:37:34.832Z,20.63
2018-03-30T03:40:02.450Z,19.60
2018-03-30T03:42:30.043Z,20.70
2018-03-30T03:44:57.681Z,20.27
2018-03-30T03:47:25.329Z,19.83
2018-03-30T03:49:52.926Z,20.17
2018-03-30T03:52:21.339Z,20.10
2018-03-30T03:54:48.934Z,19.23
2018-03-30T03:57:16.572Z,20.00
2018-03-30T03:59:44.185Z,18.40
2018-03-30T04:02:12.867Z,19.73
2018-03-30T04:04:41.312Z,20.13
2018-03-30T04:07:08.902Z,18.83
2018-03-30T04:09:36.554Z,19.17
2018-03-30T04:12:04.140Z,20.07
2018-03-30T04:14:32.527Z,20.23
2018-03-30T04:17:01.281Z,18.60
2018-03-30T04:19:28.902Z,19.43
2018-03-30T04:21:56.490Z,19.40
2018-03-30T04:24:24.149Z,19.20
2018-03-30T04:26:51.785Z,18.63
2018-03-30T04:29:19.370Z,19.70
2018-03-30T04:31:47.010Z,20.43
2018-03-30T04:34:14.603Z,19.00
2018-03-30T04:36:42.188Z,18.97
2018-03-30T04:39:09.816Z,18.47
2018-03-30T04:41:37.406Z,16.93
2018-03-30T04:44:05.046Z,18.37
2018-03-30T04:46:32.648Z,18.93
2018-03-30T04:49:00.994Z,18.40
2018-03-30T04:51:28.642Z,18.27
2018-03-30T04:53:56.295Z,18.43
2018-03-30T04:56:23.940Z,18.10
2018-03-30T04:58:51.570Z,18.77
2018-03-30T05:01:19.176Z,19.83
2018-03-30T05:03:46.799Z,17.77
2018-03-30T05:06:14.395Z,18.60
2018-03-30T05:08:41.992Z,18.87
2018-03-30T05:11:09.681Z,18.07
2018-03-30T05:13:38.070Z,16.83
2018-03-30T05:16:07.717Z,18.23
2018-03-30T05:18:35.361Z,19.53
2018-03-30T05:21:02.997Z,18.17
2018-03-30T05:23:30.745Z,17.37
2018-03-30T05:25:58.378Z,16.80
2018-03-30T05:28:25.993Z,17.23
2018-03-30T05:30:53.682Z,18.20
2018-03-30T05:33:21.359Z,16.57
2018-03-30T05:35:48.974Z,17.17
2018-03-30T05:38:16.582Z,17.60
2018-03-30T05:40:44.204Z,17.23
2018-03-30T05:43:11.831Z,16.90
2018-03-30T05:45:39.670Z,17.07
2018-03-30T05:48:07.315Z,16.20
2018-03-30T05:50:35.043Z,15.93
2018-03-30T05:53:02.694Z,16.33
2018-03-30T05:55:30.310Z,17.03
2018-03-30T05:57:57.968Z,16.53
2018-03-30T06:00:25.629Z,15.80
2018-03-30T06:02:53.247Z,15.20
2018-03-30T06:05:20.911Z,16.33
2018-03-30T06:07:48.558Z,16.10
2018-03-30T06:10:16.290Z,15.67
2018-03-30T06:12:44.756Z,14.40
2018-03-30T06:15:13.262Z,14.53
2018-03-30T06:17:41.120Z,14.60
2018-03-30T06:20:08.958Z,13.87
2018-03-30T06:22:37.403Z,15.03
2018-03-30T06:25:05.018Z,15.40
2018-03-30T06:27:32.610Z,14.53
2018-03-30T06:30:00.231Z,15.73
2018-03-30T06:32:27.933Z,14.80
2018-03-30T06:34:55.694Z,14.40
2018-03-30T06:37:23.313Z,14.83
2018-03-30T06:39:50.985Z,14.70
2018-03-30T06:42:19.407Z,15.57
2018-03-30T06:44:46.992Z,14.67
2018-03-30T06:47:14.588Z,14.17
2018-03-30T06:49:42.957Z,13.67
2018-03-30T06:52:10.590Z,14.83
2018-03-30T06:54:38.252Z,14.37
2018-03-30T06:57:05.835Z,14.80
2018-03-30T06:59:33.444Z,13.87
2018-03-30T07:02:01.028Z,13.97
2018-03-30T07:04:28.606Z,14.20
2018-03-30T07:06:57.393Z,14.40
2018-03-30T07:09:25.007Z,13.43
2018-03-30T07:11:52.585Z,13.93
2018-03-30T07:14:20.221Z,13.47
2018-03-30T07:16:47.859Z,13.00
2018-03-30T07:19:15.494Z,13.37
2018-03-30T07:21:43.106Z,13.73
2018-03-30T07:24:16.882Z,14.40
2018-03-30T07:26:49.559Z,14.33
2018-03-30T07:29:17.426Z,13.87
2018-03-30T07:31:45.038Z,13.70
2018-03-30T07:34:12.763Z,13.80
2018-03-30T07:36:40.352Z,13.77
2018-03-30T07:39:08.012Z,13.73
2018-03-30T07:41:35.597Z,13.77
2018-03-30T07:44:03.212Z,13.63
2018-03-30T07:46:30.803Z,13.73
2018-03-30T07:48:58.404Z,14.43
2018-03-30T07:51:26.019Z,13.53
2018-03-30T07:53:53.848Z,14.53
2018-03-30T07:56:29.071Z,14.27
2018-03-30T07:58:56.735Z,14.23
2018-03-30T08:01:24.608Z,13.40
2018-03-30T08:03:52.238Z,14.33
2018-03-30T08:06:19.860Z,13.50
2018-03-30T08:08:53.896Z,14.03
2018-03-30T08:11:21.487Z,13.73
2018-03-30T08:13:49.405Z,14.27
2018-03-30T08:16:30.568Z,12.83
2018-03-30T08:18:58.527Z,13.83
2018-03-30T08:21:26.288Z,13.90
2018-03-30T08:23:53.874Z,14.20
2018-03-30T08:26:21.635Z,13.50
2018-03-30T08:28:49.657Z,14.13
2018-03-30T08:31:17.714Z,13.03
2018-03-30T08:33:46.158Z,13.10
2018-03-30T08:36:13.932Z,13.40
2018-03-30T08:38:42.077Z,13.63
2018-03-30T08:41:09.652Z,14.00
2018-03-30T08:43:37.789Z,14.13
2018-03-30T08:46:05.736Z,12.93
2018-03-30T08:48:33.533Z,12.33
2018-03-30T08:51:01.241Z,13.20
2018-03-30T08:53:28.854Z,12.50
2018-03-30T08:55:56.569Z,12.73
2018-03-30T08:58:24.163Z,12.93
2018-03-30T09:00:51.762Z,12.77
2018-03-30T09:03:19.689Z,12.80
2018-03-30T09:05:47.270Z,12.83
2018-03-30T09:08:14.904Z,12.77
2018-03-30T09:10:43.643Z,12.57
2018-03-30T09:13:16.012Z,12.33
2018-03-30T09:15:43.962Z,12.53
2018-03-30T09:18:11.564Z,12.13
2018-03-30T09:20:39.209Z,12.13
2018-03-30T09:23:06.803Z,11.50
2018-03-30T09:25:34.403Z,11.80
2018-03-30T09:28:02.054Z,11.17
2018-03-30T09:30:29.697Z,11.80
2018-03-30T09:32:57.320Z,11.50
2018-03-30T09:35:24.919Z,11.60
2018-03-30T09:37:52.549Z,10.17
2018-03-30T09:40:20.182Z,10.50
2018-03-30T09:42:47.784Z,10.07
2018-03-30T09:45:15.376Z,10.47
2018-03-30T09:47:43.026Z,10.37
2018-03-30T09:50:10.674Z,9.67
2018-03-30T09:52:38.294Z,10.60
2018-03-30T09:55:05.917Z,9.83
2018-03-30T09:57:33.540Z,9.33
2018-03-30T10:00:01.164Z,9.63
2018-03-30T10:02:28.769Z,8.80
2018-03-30T10:05:01.375Z,8.60
2018-03-30T10:07:28.999Z,9.13
2018-03-30T10:09:56.633Z,8.70
2018-03-30T10:12:25.001Z,8.60
2018-03-30T10:14:53.381Z,7.90
2018-03-30T10:17:21.769Z,8.60
2018-03-30T10:19:50.168Z,8.37
2018-03-30T10:22:17.800Z,8.90
2018-03-30T10:24:45.382Z,8.63
2018-03-30T10:27:13.145Z,7.53
2018-03-30T10:29:41.517Z,7.73
2018-03-30T10:32:09.870Z,8.37
2018-03-30T10:34:37.501Z,8.43
2018-03-30T10:37:05.096Z,8.77
2018-03-30T10:39:32.700Z,7.70
2018-03-30T10:42:00.302Z,8.13
2018-03-30T10:44:27.884Z,7.63
2018-03-30T10:46:55.461Z,7.87
2018-03-30T10:49:23.060Z,7.83
2018-03-30T10:51:50.683Z,7.50
2018-03-30T10:54:19.114Z,7.20
2018-03-30T10:56:47.846Z,7.03
2018-03-30T10:59:15.466Z,6.93
2018-03-30T11:01:43.079Z,6.90
2018-03-30T11:04:16.849Z,6.30
2018-03-30T11:06:44.616Z,6.77
2018-03-30T11:09:17.859Z,6.47
2018-03-30T11:11:45.857Z,5.87
2018-03-30T11:14:13.437Z,5.93
2018-03-30T11:16:48.265Z,5.80
2018-03-30T11:19:15.926Z,6.30
2018-03-30T11:21:43.571Z,6.27
2018-03-30T11:24:11.174Z,6.53
2018-03-30T11:26:38.834Z,6.23
2018-03-30T11:29:06.441Z,6.27
2018-03-30T11:31:34.127Z,6.77
2018-03-30T11:34:01.736Z,6.53
2018-03-30T11:36:29.344Z,6.17
2018-03-30T11:38:56.960Z,6.70
2018-03-30T11:41:24.600Z,6.20
2018-03-30T11:43:52.235Z,6.07
2018-03-30T11:46:19.815Z,6.20
2018-03-30T11:48:47.430Z,6.77
2018-03-30T11:51:15.042Z,6.87
2018-03-30T11:53:42.656Z,6.80
2018-03-30T11:56:10.321Z,6.60
2018-03-30T11:58:37.945Z,6.43
2018-03-30T12:01:05.573Z,6.73
2018-03-30T12:03:33.216Z,6.90
2018-03-30T12:06:00.945Z,6.50
2018-03-30T12:08:28.543Z,6.90
2018-03-30T12:10:56.141Z,6.47
2018-03-30T12:13:23.786Z,6.00
2018-03-30T12:15:51.420Z,6.80
2018-03-30T12:18:19.025Z,6.47
2018-03-30T12:20:46.627Z,6.27
2018-03-30T12:23:14.974Z,5.93
2018-03-30T12:25:43.035Z,6.10
2018-03-30T12:28:10.675Z,5.90
2018-03-30T12:30:38.290Z,6.20
2018-03-30T12:33:06.005Z,6.00
2018-03-30T12:35:33.938Z,6.63
2018-03-30T12:38:01.565Z,6.13
2018-03-30T12:40:32.021Z,7.00
2018-03-30T12:42:59.651Z,7.17
2018-03-30T12:45:27.273Z,6.30
2018-03-30T12:47:54.863Z,6.93
2018-03-30T12:50:22.471Z,6.60
2018-03-30T12:52:50.118Z,6.63
2018-03-30T12:55:17.720Z,7.00
2018-03-30T12:57:45.356Z,6.50
2018-03-30T13:00:12.952Z,6.20
2018-03-30T13:02:40.616Z,6.10
2018-03-30T13:05:08.248Z,6.10
2018-03-30T13:07:36.608Z,6.20
2018-03-30T13:10:04.274Z,6.37
2018-03-30T13:12:31.895Z,6.63
2018-03-30T13:14:59.570Z,5.90
2018-03-30T13:17:27.174Z,6.77
2018-03-30T13:19:54.756Z,6.63
2018-03-30T13:22:22.384Z,6.07
2018-03-30T13:24:50.009Z,5.80
2018-03-30T13:27:18.522Z,5.50
2018-03-30T13:29:46.149Z,5.67
2018-03-30T13:32:13.784Z,5.07
2018-03-30T13:34:41.368Z,5.90
2018-03-30T13:37:08.970Z,5.20
2018-03-30T13:39:36.586Z,5.27
2018-03-30T13:42:04.219Z,5.57
2018-03-30T13:44:31.814Z,5.07
2018-03-30T13:46:59.391Z,4.80
2018-03-30T13:49:26.987Z,4.67
2018-03-30T13:51:58.345Z,5.30
2018-03-30T13:54:26.815Z,5.87
2018-03-30T13:56:57.209Z,5.70
2018-03-30T13:59:27.355Z,5.80
2018-03-30T14:02:04.879Z,5.70
2018-03-30T14:04:39.645Z,5.27
2018-03-30T14:07:11.021Z,6.10
2018-03-30T14:09:41.251Z,6.07
2018-03-30T14:15:02.638Z,5.03
2018-03-30T14:17:43.249Z,5.80
2018-03-30T14:20:12.246Z,6.00
2018-03-30T14:22:54.789Z,5.77
2018-03-30T14:25:22.448Z,6.00
2018-03-30T14:27:57.776Z,5.53
2018-03-30T14:30:38.688Z,5.83
2018-03-30T14:33:11.985Z,6.03
2018-03-30T14:35:45.528Z,5.70
2018-03-30T14:38:17.080Z,5.97
2018-03-30T14:40:47.884Z,5.80
2018-03-30T14:43:15.534Z,5.20
2018-03-30T14:45:45.195Z,6.00
2018-03-30T14:48:13.666Z,6.40
2018-03-30T14:50:48.019Z,6.20
2018-03-30T14:53:22.257Z,6.17
2018-03-30T14:56:00.158Z,6.73
2018-03-30T14:58:28.580Z,7.07
2018-03-30T15:14:22.921Z,7.67
2018-03-30T15:16:55.079Z,7.03
2018-03-30T15:19:45.241Z,6.73
2018-03-30T15:22:20.573Z,7.23
2018-03-30T15:24:49.047Z,7.00
2018-03-30T15:27:23.425Z,6.97
2018-03-30T15:29:54.126Z,6.93
2018-03-30T15:32:30.649Z,6.70
2018-03-30T15:34:58.297Z,6.50
2018-03-30T15:37:29.596Z,7.23
2018-03-30T15:40:05.921Z,7.17
2018-03-30T15:42:53.082Z,6.97
2018-03-30T15:48:11.070Z,6.80
2018-03-30T15:50:38.685Z,7.10
2018-03-30T15:53:06.289Z,7.10
2018-03-30T15:55:33.887Z,6.40
2018-03-30T15:58:01.538Z,6.90
2018-03-30T16:00:29.149Z,6.97
2018-03-30T16:02:57.183Z,7.20
2018-03-30T16:05:24.822Z,7.07
2018-03-30T16:07:52.431Z,6.63
2018-03-30T16:10:20.893Z,6.77
2018-03-30T16:12:48.534Z,6.83
2018-03-30T16:15:16.924Z,6.70
2018-03-30T16:17:45.262Z,7.13
2018-03-30T16:20:12.422Z,7.00
2018-03-30T16:22:39.524Z,6.83
2018-03-30T16:25:06.632Z,6.43
2018-03-30T16:27:33.726Z,7.37
2018-03-30T16:30:00.895Z,6.80
2018-03-30T16:32:28.072Z,6.80
2018-03-30T16:34:55.199Z,6.90
2018-03-30T16:37:22.305Z,7.20
2018-03-30T16:39:49.395Z,7.50
2018-03-30T16:42:16.486Z,6.20
2018-03-30T16:44:44.364Z,6.90
2018-03-30T16:47:11.517Z,7.27
2018-03-30T16:49:38.681Z,7.53
2018-03-30T16:52:05.882Z,6.80
2018-03-30T16:54:32.998Z,6.43
2018-03-30T16:57:00.138Z,7.43
2018-03-30T16:59:27.232Z,7.43
2018-03-30T17:01:54.332Z,6.73
2018-03-30T17:04:21.483Z,7.20
2018-03-30T17:06:48.625Z,7.03
2018-03-30T17:09:16.515Z,7.23
2018-03-30T17:11:43.636Z,7.13
2018-03-30T17:14:14.164Z,7.03
2018-03-30T17:16:41.576Z,6.90
2018-03-30T17:19:08.699Z,7.17
2018-03-30T17:21:35.833Z,7.10
2018-03-30T17:24:03.687Z,7.23
2018-03-30T17:26:30.790Z,7.00
2018-03-30T17:28:57.869Z,6.50
2018-03-30T17:31:24.957Z,7.67
2018-03-30T17:33:52.084Z,6.90
2018-03-30T17:36:19.202Z,7.53
2018-03-30T17:38:47.122Z,6.90
2018-03-30T17:41:14.231Z,7.43
2018-03-30T17:43:41.359Z,7.57
2018-03-30T17:46:08.469Z,7.67
2018-03-30T17:48:35.595Z,8.07
2018-03-30T17:51:02.707Z,8.70
2018-03-30T17:53:29.819Z,8.47
2018-03-30T17:55:56.960Z,8.20
2018-03-30T17:58:24.088Z,8.40
2018-03-30T18:00:51.176Z,8.50
2018-03-30T18:03:19.079Z,8.63
2018-03-30T18:05:46.172Z,8.33
2018-03-30T18:08:13.322Z,8.27
2018-03-30T18:10:41.054Z,8.80
2018-03-30T18:13:08.196Z,7.97
2018-03-30T18:15:35.307Z,8.40
2018-03-30T18:18:03.212Z,9.20
2018-03-30T18:20:30.342Z,9.50
2018-03-30T18:22:57.463Z,8.27
2018-03-30T18:25:24.540Z,8.00
2018-03-30T18:27:51.720Z,8.40
2018-03-30T18:30:18.831Z,8.40
2018-03-30T18:32:46.701Z,7.53
2018-03-30T18:35:13.790Z,8.07
2018-03-30T18:37:40.879Z,9.20
2018-03-30T18:40:08.797Z,8.40
2018-03-30T18:42:35.884Z,8.90
2018-03-30T18:45:03.032Z,9.37
2018-03-30T18:47:30.116Z,10.43
2018-03-30T18:49:58.308Z,10.27
2018-03-30T18:52:25.402Z,11.50
2018-03-30T18:54:52.487Z,12.50
2018-03-30T18:57:20.357Z,12.60
2018-03-30T18:59:47.500Z,12.40
2018-03-30T19:02:14.600Z,13.60
2018-03-30T19:04:41.703Z,13.00
2018-03-30T19:07:09.559Z,14.13
2018-03-30T19:09:36.679Z,14.63
2018-03-30T19:12:03.818Z,13.07
2018-03-30T19:14:30.920Z,14.07
2018-03-30T19:16:58.798Z,13.27
2018-03-30T19:19:25.936Z,14.07
2018-03-30T19:21:53.175Z,13.50
2018-03-30T19:24:20.266Z,14.33
2018-03-30T19:26:47.339Z,14.17
2018-03-30T19:29:14.598Z,15.10
2018-03-30T19:31:41.739Z,14.33
2018-03-30T19:34:08.890Z,14.23
2018-03-30T19:36:36.047Z,13.93
2018-03-30T19:39:03.919Z,14.33
2018-03-30T19:41:31.037Z,14.53
2018-03-30T19:43:58.152Z,15.17
2018-03-30T19:46:25.335Z,14.50
2018-03-30T19:48:52.451Z,14.20
2018-03-30T19:51:19.538Z,14.67
2018-03-30T19:53:46.645Z,14.50
2018-03-30T19:56:13.763Z,14.77
2018-03-30T19:58:40.905Z,14.70
2018-03-30T20:01:07.993Z,15.10
2018-03-30T20:03:35.156Z,15.03
2018-03-30T20:06:03.069Z,14.53
2018-03-30T20:08:30.219Z,14.67
2018-03-30T20:10:57.412Z,14.93
2018-03-30T20:13:24.521Z,14.47
2018-03-30T20:15:51.610Z,15.47
2018-03-30T20:18:18.760Z,14.47
2018-03-30T20:20:45.916Z,15.23
2018-03-30T20:23:13.041Z,16.03
2018-03-30T20:25:40.144Z,14.93
2018-03-30T20:28:08.031Z,16.17
2018-03-30T20:30:35.150Z,15.13
2018-03-30T20:33:02.229Z,16.10
2018-03-30T20:35:29.342Z,15.23
2018-03-30T20:37:56.491Z,15.13
2018-03-30T20:40:23.619Z,15.23
2018-03-30T20:42:50.705Z,14.67
2018-03-30T20:45:17.830Z,14.97
2018-03-30T20:47:44.975Z,15.57
2018-03-30T20:50:12.099Z,15.40
2018-03-30T20:52:39.243Z,15.17
2018-03-30T20:55:06.336Z,14.60
2018-03-30T20:57:37.157Z,15.77
2018-03-30T21:00:09.102Z,15.30
2018-03-30T21:02:40.640Z,15.73
2018-03-30T21:05:12.558Z,14.53
2018-03-30T21:07:40.341Z,15.20
2018-03-30T21:10:07.473Z,14.17
2018-03-30T21:12:34.598Z,15.73
2018-03-30T21:15:01.766Z,14.87
2018-03-30T21:17:28.917Z,16.17
2018-03-30T21:19:56.061Z,14.67
2018-03-30T21:22:23.214Z,15.20
2018-03-30T21:24:50.305Z,14.83
2018-03-30T21:27:18.211Z,14.70
2018-03-30T21:29:45.313Z,14.63
2018-03-30T21:32:12.461Z,15.77
2018-03-30T21:34:39.557Z,15.10
2018-03-30T21:37:06.642Z,14.63
2018-03-30T21:39:33.732Z,14.77
2018-03-30T21:42:01.595Z,14.13
2018-03-30T21:44:28.714Z,14.17
2018-03-30T21:46:55.949Z,15.47
2018-03-30T21:49:23.081Z,14.27
2018-03-30T21:51:50.227Z,15.17
2018-03-30T21:54:17.395Z,14.17
2018-03-30T21:56:44.552Z,14.27
2018-03-30T21:59:11.665Z,14.67
2018-03-30T22:01:38.798Z,14.60
2018-03-30T22:04:05.954Z,14.97
2018-03-30T22:06:33.079Z,13.73
2018-03-30T22:09:00.219Z,14.23
2018-03-30T22:11:27.330Z,14.93
2018-03-30T22:13:54.450Z,14.00
2018-03-30T22:16:22.312Z,15.00
2018-03-30T22:18:49.396Z,14.83
2018-03-30T22:21:16.513Z,14.27
2018-03-30T22:23:44.360Z,14.07
2018-03-30T22:26:11.473Z,13.70
2018-03-30T22:28:38.613Z,14.13
2018-03-30T22:31:05.726Z,15.30
2018-03-30T22:33:33.614Z,13.60
2018-03-30T22:36:00.787Z,14.33
2018-03-30T22:38:27.876Z,14.23
2018-03-30T22:40:54.980Z,14.17
2018-03-30T22:43:22.141Z,13.23
2018-03-30T22:45:49.389Z,14.03
2018-03-30T22:48:16.502Z,14.63
2018-03-30T22:50:43.585Z,13.60
2018-03-30T22:53:10.668Z,14.13
2018-03-30T22:55:37.786Z,14.00
2018-03-30T22:58:04.925Z,14.10
2018-03-30T23:00:32.062Z,13.97
2018-03-30T23:02:59.146Z,13.93
2018-03-30T23:05:26.298Z,14.53
2018-03-30T23:07:53.390Z,13.57
2018-03-30T23:10:20.532Z,14.60
2018-03-30T23:12:47.609Z,13.70
2018-03-30T23:15:15.493Z,14.23
2018-03-30T23:17:42.628Z,13.83
2018-03-30T23:20:09.723Z,13.93
2018-03-30T23:22:36.884Z,13.77
2018-03-30T23:25:04.037Z,14.33
2018-03-30T23:27:31.155Z,13.57
2018-03-30T23:29:58.291Z,13.40
2018-03-30T23:32:26.154Z,13.50
2018-03-30T23:34:53.274Z,13.97
2018-03-30T23:37:20.465Z,14.47
2018-03-30T23:39:47.621Z,15.27
2018-03-30T23:42:14.762Z,15.10
2018-03-30T23:44:41.845Z,14.27
2018-03-30T23:47:08.967Z,14.23
2018-03-30T23:49:36.104Z,14.10
2018-03-30T23:52:04.069Z,13.30
2018-03-30T23:54:31.233Z,14.47
2018-03-30T23:56:58.395Z,14.00
2018-03-30T23:59:25.529Z,13.63
